Time;durP1;ratioP1;P1;durP2;ratioP2;P2;SDS_P1;SDS_P2;PMS_P1;PMS_P2;Temp;Humidity;BMP_temperature;BMP_pressure;BME280_temperature;BME280_humidity;BME280_pressure;Samples;Min_cycle;Max_cycle;Signal;HPM_P1;HPM_P2
2021/12/12 00:01:36;;;;;;;32.37;11.77;;;;;2.80;96902.00;;;;8431718;28;20349;-71
2021/12/12 00:06:12;;;;;;;31.33;11.27;;;;;2.70;96905.00;;;;8430860;28;20238;-70
2021/12/12 00:10:24;;;;;;;23.93;11.77;;;;;2.70;96889.00;;;;8431489;28;20213;-69
2021/12/12 00:14:54;;;;;;;27.23;10.90;;;;;2.80;96900.00;;;;8430293;28;20552;-69
2021/12/12 00:18:58;;;;;;;23.17;10.97;;;;;2.80;96907.00;;;;8431386;28;20233;-69
2021/12/12 00:23:32;;;;;;;25.63;11.07;;;;;2.80;96908.00;;;;8431315;28;20245;-69
2021/12/12 00:27:36;;;;;;;33.13;11.77;;;;;2.80;96911.00;;;;8430675;28;20218;-69
2021/12/12 00:31:41;;;;;;;26.27;11.53;;;;;2.80;96897.00;;;;8431020;28;20252;-70
2021/12/12 00:35:44;;;;;;;28.10;11.90;;;;;2.80;96905.00;;;;8431065;28;20236;-69
2021/12/12 00:39:52;;;;;;;30.17;12.63;;;;;2.80;96912.00;;;;8430619;28;20224;-69
2021/12/12 00:44:23;;;;;;;28.50;11.77;;;;;2.80;96922.00;;;;8429251;28;20265;-69
2021/12/12 00:48:30;;;;;;;27.43;12.23;;;;;2.90;96926.00;;;;8430583;28;20213;-69
2021/12/12 00:53:04;;;;;;;27.63;11.93;;;;;2.90;96931.00;;;;8430317;28;20224;-70
2021/12/12 00:57:11;;;;;;;35.03;12.70;;;;;2.90;96942.00;;;;8430135;28;20234;-70
2021/12/12 01:01:45;;;;;;;31.07;11.80;;;;;3.00;96939.00;;;;8429491;28;20226;-69
2021/12/12 01:05:51;;;;;;;27.73;12.73;;;;;3.00;96945.00;;;;8429534;28;20220;-69
2021/12/12 01:10:24;;;;;;;32.07;12.60;;;;;3.00;96945.00;;;;8429362;28;20223;-69
2021/12/12 01:14:33;;;;;;;27.43;12.23;;;;;3.00;96955.00;;;;8429475;28;20221;-70
2021/12/12 01:19:05;;;;;;;36.77;14.47;;;;;3.00;96950.00;;;;8405524;28;20233;-69
2021/12/12 01:23:15;;;;;;;32.53;12.53;;;;;3.00;96957.00;;;;8403989;28;20569;-69
2021/12/12 01:27:18;;;;;;;46.80;13.67;;;;;3.00;96953.00;;;;8403761;28;20215;-69
2021/12/12 01:31:29;;;;;;;33.33;12.87;;;;;3.00;96968.00;;;;8404624;28;20601;-70
2021/12/12 01:35:33;;;;;;;41.83;14.13;;;;;2.90;96965.00;;;;8404535;28;20246;-69
2021/12/12 01:39:40;;;;;;;44.67;13.77;;;;;3.00;96971.00;;;;8404209;28;20226;-69
2021/12/12 01:43:48;;;;;;;40.67;13.53;;;;;3.00;96971.00;;;;8404190;28;20228;-69
2021/12/12 01:47:54;;;;;;;38.23;14.10;;;;;3.10;96978.00;;;;8404122;28;20229;-69
2021/12/12 01:51:58;;;;;;;32.03;12.83;;;;;3.10;96970.00;;;;8403664;28;20278;-70
2021/12/12 01:56:08;;;;;;;34.20;13.27;;;;;3.10;96968.00;;;;8404150;28;20235;-70
2021/12/12 02:00:37;;;;;;;41.80;13.73;;;;;3.00;96964.00;;;;8395351;28;20221;-70
2021/12/12 02:09:39;;;;;;;41.03;14.57;;;;;3.00;96958.00;;;;8393876;28;20218;-71
2021/12/12 02:14:16;;;;;;;37.50;13.77;;;;;3.00;96972.00;;;;8395386;28;20227;-70
2021/12/12 02:18:29;;;;;;;41.90;13.27;;;;;3.10;96969.00;;;;8395005;28;20222;-70
2021/12/12 02:22:52;;;;;;;40.93;13.50;;;;;3.10;96976.00;;;;8406507;28;20216;-70
2021/12/12 02:35:55;;;;;;;37.93;13.00;;;;;3.10;96997.00;;;;8363056;28;20742;-70
2021/12/12 02:40:01;;;;;;;36.40;13.47;;;;;3.10;96983.00;;;;8394323;28;20214;-70
2021/12/12 02:44:05;;;;;;;42.67;13.03;;;;;3.20;96976.00;;;;8394569;28;20219;-70
2021/12/12 02:48:16;;;;;;;47.83;13.77;;;;;3.20;96985.00;;;;8394552;28;20221;-71
2021/12/12 02:52:32;;;;;;;47.23;14.13;;;;;3.30;96998.00;;;;8395019;28;20233;-70
2021/12/12 02:56:40;;;;;;;49.63;15.80;;;;;3.30;96979.00;;;;8405385;28;20238;-71
2021/12/12 03:05:09;;;;;;;41.50;13.93;;;;;3.30;96993.00;;;;8360469;28;20593;-71
2021/12/12 03:09:15;;;;;;;39.57;14.47;;;;;3.40;97002.00;;;;8392481;28;20650;-71
2021/12/12 03:13:21;;;;;;;37.23;13.40;;;;;3.40;97001.00;;;;8359287;28;20221;-71
2021/12/12 03:17:25;;;;;;;41.77;15.23;;;;;3.50;97003.00;;;;8379128;28;20262;-71
2021/12/12 03:21:32;;;;;;;41.13;14.80;;;;;3.60;96992.00;;;;8379922;28;20874;-71
2021/12/12 03:25:40;;;;;;;44.47;14.17;;;;;3.60;96993.00;;;;8376416;28;20648;-72
2021/12/12 03:29:47;;;;;;;46.57;14.70;;;;;3.70;96983.00;;;;8375353;28;20236;-71
2021/12/12 03:33:51;;;;;;;37.80;14.73;;;;;3.70;97004.00;;;;8383784;28;20347;-71
2021/12/12 03:37:54;;;;;;;48.17;14.50;;;;;3.80;97001.00;;;;8388734;28;20260;-71
2021/12/12 03:42:02;;;;;;;41.67;14.77;;;;;3.80;96996.00;;;;8383223;28;20258;-70
2021/12/12 03:46:10;;;;;;;37.57;14.03;;;;;3.80;97006.00;;;;8345727;28;20979;-71
2021/12/12 03:50:18;;;;;;;43.30;14.97;;;;;3.80;97004.00;;;;8352621;28;20224;-71
2021/12/12 03:54:21;;;;;;;37.30;12.13;;;;;3.80;97004.00;;;;8407055;28;20243;-71
2021/12/12 03:58:25;;;;;;;39.47;14.07;;;;;3.90;97001.00;;;;8419545;28;20320;-71
2021/12/12 04:02:30;;;;;;;35.07;14.83;;;;;3.80;97006.00;;;;8419076;28;20234;-71
2021/12/12 04:06:34;;;;;;;38.23;13.17;;;;;3.90;97012.00;;;;8416721;28;20234;-71
2021/12/12 04:10:37;;;;;;;42.33;14.53;;;;;3.90;97018.00;;;;8419989;28;20241;-71
2021/12/12 04:14:41;;;;;;;41.30;12.90;;;;;3.90;97018.00;;;;8419000;28;20310;-71
2021/12/12 04:18:46;;;;;;;43.10;15.13;;;;;3.90;97019.00;;;;8417456;28;20258;-71
2021/12/12 04:22:50;;;;;;;44.37;14.93;;;;;4.00;97034.00;;;;8419432;28;20304;-70
2021/12/12 04:26:54;;;;;;;46.43;15.43;;;;;4.00;97025.00;;;;8416842;28;20320;-71
2021/12/12 04:30:57;;;;;;;38.13;14.17;;;;;4.00;97036.00;;;;8416603;28;20233;-71
2021/12/12 04:35:06;;;;;;;47.60;14.90;;;;;4.00;97046.00;;;;8411528;28;20267;-71
2021/12/12 04:39:13;;;;;;;34.40;13.70;;;;;3.90;97052.00;;;;8411036;28;20260;-71
2021/12/12 04:43:17;;;;;;;42.23;14.33;;;;;3.90;97051.00;;;;8410582;28;20227;-71
2021/12/12 04:51:53;;;;;;;52.50;15.37;;;;;3.90;97061.00;;;;8432338;28;20777;-71
2021/12/12 04:56:03;;;;;;;46.40;14.57;;;;;4.00;97066.00;;;;8415902;28;20312;-71
2021/12/12 05:00:10;;;;;;;43.17;14.63;;;;;4.00;97071.00;;;;8417413;28;20238;-70
2021/12/12 05:04:21;;;;;;;38.47;13.47;;;;;4.00;97079.00;;;;8421170;28;20233;-70
2021/12/12 05:08:35;;;;;;;40.57;14.13;;;;;4.00;97072.00;;;;8429747;28;20233;-70
2021/12/12 05:13:04;;;;;;;49.03;14.63;;;;;4.00;97064.00;;;;8430312;28;20224;-70
2021/12/12 05:17:38;;;;;;;44.47;14.00;;;;;3.90;97070.00;;;;8429219;28;20294;-71
2021/12/12 05:21:46;;;;;;;48.43;15.17;;;;;4.00;97072.00;;;;8429261;28;20563;-71
2021/12/12 05:26:17;;;;;;;43.03;13.77;;;;;4.00;97080.00;;;;8428339;28;20223;-70
2021/12/12 05:30:26;;;;;;;51.47;14.30;;;;;4.00;97096.00;;;;8429817;28;20556;-71
2021/12/12 05:34:57;;;;;;;47.47;13.50;;;;;4.00;97098.00;;;;8429223;28;20646;-71
2021/12/12 05:39:02;;;;;;;38.33;13.63;;;;;4.00;97112.00;;;;8428904;28;20225;-71
2021/12/12 05:43:07;;;;;;;36.10;11.60;;;;;4.00;97107.00;;;;8428743;28;20243;-71
2021/12/12 05:47:13;;;;;;;37.07;12.40;;;;;3.90;97108.00;;;;8428938;28;20215;-71
2021/12/12 05:51:16;;;;;;;27.90;10.77;;;;;3.90;97109.00;;;;8428339;28;20227;-70
2021/12/12 05:55:20;;;;;;;33.43;10.03;;;;;3.90;97120.00;;;;8427796;28;20560;-70
2021/12/12 05:59:57;;;;;;;26.37;9.77;;;;;3.80;97113.00;;;;8427937;28;20276;-70
2021/12/12 06:04:03;;;;;;;25.17;9.60;;;;;3.80;97122.00;;;;8427947;28;20219;-70
2021/12/12 06:08:37;;;;;;;22.40;8.33;;;;;3.80;97124.00;;;;8428650;28;20643;-70
2021/12/12 06:12:41;;;;;;;17.30;8.83;;;;;3.80;97127.00;;;;8428080;28;20253;-69
2021/12/12 06:16:46;;;;;;;19.03;8.17;;;;;3.80;97131.00;;;;8428654;28;20624;-69
2021/12/12 06:20:51;;;;;;;22.23;8.77;;;;;3.80;97126.00;;;;8427980;28;20277;-70
2021/12/12 06:25:24;;;;;;;22.17;8.60;;;;;3.70;97147.00;;;;8427367;28;20647;-69
2021/12/12 06:30:02;;;;;;;20.23;8.43;;;;;3.60;97136.00;;;;8426106;28;20232;-70
2021/12/12 06:34:05;;;;;;;13.00;6.83;;;;;3.60;97151.00;;;;8427714;28;20245;-69
2021/12/12 06:38:12;;;;;;;14.23;4.90;;;;;3.60;97157.00;;;;8426815;28;20230;-70
2021/12/12 06:42:48;;;;;;;15.13;7.20;;;;;3.50;97157.00;;;;8428354;28;20217;-69
2021/12/12 06:46:53;;;;;;;15.00;6.43;;;;;3.50;97162.00;;;;8427232;28;20639;-69
2021/12/12 06:51:27;;;;;;;11.77;6.30;;;;;3.50;97164.00;;;;8426762;28;20260;-70
2021/12/12 06:56:06;;;;;;;9.47;5.00;;;;;3.40;97168.00;;;;8426744;28;20222;-69
2021/12/12 07:00:41;;;;;;;10.93;5.70;;;;;3.30;97179.00;;;;8426979;28;20639;-69
2021/12/12 07:05:17;;;;;;;9.60;4.10;;;;;3.20;97177.00;;;;8433348;28;20268;-69
2021/12/12 07:09:51;;;;;;;4.63;3.30;;;;;3.10;97176.00;;;;8433173;28;20253;-69
2021/12/12 07:13:57;;;;;;;12.47;3.93;;;;;2.90;97177.00;;;;8433712;28;20221;-70
2021/12/12 07:18:05;;;;;;;10.53;4.80;;;;;2.80;97183.00;;;;8433788;28;20236;-69
2021/12/12 07:22:37;;;;;;;7.93;3.90;;;;;2.70;97184.00;;;;8432863;28;20240;-69
2021/12/12 07:26:40;;;;;;;13.47;4.10;;;;;2.70;97191.00;;;;8432878;28;20228;-69
2021/12/12 07:30:45;;;;;;;8.60;4.77;;;;;2.70;97185.00;;;;8433225;28;20262;-70
2021/12/12 07:35:19;;;;;;;15.77;4.67;;;;;2.70;97198.00;;;;8432706;28;20232;-70
2021/12/12 07:39:24;;;;;;;10.77;4.57;;;;;2.80;97202.00;;;;8432264;28;20235;-70
2021/12/12 07:43:29;;;;;;;12.63;4.87;;;;;2.90;97202.00;;;;8430777;28;20689;-70
2021/12/12 07:47:34;;;;;;;16.93;4.50;;;;;3.00;97219.00;;;;8429887;28;20250;-70
2021/12/12 07:51:41;;;;;;;8.13;5.17;;;;;3.10;97221.00;;;;8432687;28;20236;-71
2021/12/12 07:56:12;;;;;;;14.00;4.67;;;;;3.20;97227.00;;;;8432783;28;20245;-70
2021/12/12 08:00:20;;;;;;;14.73;5.43;;;;;3.20;97230.00;;;;8431156;28;20220;-71
2021/12/12 08:09:24;;;;;;;15.50;5.80;;;;;3.50;97232.00;;;;8430835;28;20556;-71
2021/12/12 08:13:58;;;;;;;15.70;5.67;;;;;3.60;97241.00;;;;8429860;28;20667;-70
2021/12/12 08:18:36;;;;;;;43.90;19.10;;;;;3.60;97244.00;;;;8430986;28;20984;-69
2021/12/12 08:23:11;;;;;;;71.63;40.77;;;;;3.60;97234.00;;;;8430891;28;20296;-72
2021/12/12 08:27:47;;;;;;;24.03;11.77;;;;;3.60;97236.00;;;;8431101;28;20225;-72
2021/12/12 08:32:26;;;;;;;202.03;78.53;;;;;3.70;97233.00;;;;8430264;28;20216;-71
2021/12/12 08:36:58;;;;;;;47.97;19.80;;;;;3.80;97243.00;;;;8430559;28;20255;-71
2021/12/12 08:41:36;;;;;;;1980.00;805.70;;;;;3.80;97244.00;;;;8431430;28;20237;-71
2021/12/12 08:46:15;;;;;;;63.73;27.50;;;;;3.80;97233.00;;;;8429725;28;20250;-71
2021/12/12 08:50:53;;;;;;;24.53;12.47;;;;;3.90;97247.00;;;;8430289;28;20215;-71
2021/12/12 08:55:32;;;;;;;19.20;10.80;;;;;4.00;97247.00;;;;8428240;28;20217;-71
2021/12/12 09:00:03;;;;;;;24.63;11.00;;;;;4.10;97257.00;;;;8429824;28;20626;-72
2021/12/12 09:09:41;;;;;;;34.13;15.87;;;;;4.20;97262.00;;;;8429553;28;20237;-69
2021/12/12 09:14:15;;;;;;;17.27;7.00;;;;;4.30;97268.00;;;;8428966;28;20233;-69
2021/12/12 09:18:49;;;;;;;73.27;53.33;;;;;4.40;97260.00;;;;8428688;28;20227;-69
2021/12/12 09:23:32;;;;;;;12.57;7.03;;;;;4.50;97266.00;;;;8427758;28;20227;-70
2021/12/12 09:28:06;;;;;;;31.80;18.30;;;;;4.50;97257.00;;;;8428786;28;20600;-69
2021/12/12 09:32:44;;;;;;;23.50;12.93;;;;;4.50;97261.00;;;;8427932;28;20560;-69
2021/12/12 09:37:15;;;;;;;32.53;12.10;;;;;4.60;97253.00;;;;8429062;28;20628;-69
2021/12/12 09:41:31;;;;;;;30.97;20.37;;;;;4.80;97247.00;;;;8428596;28;20595;-69
2021/12/12 09:46:08;;;;;;;28.77;20.13;;;;;4.90;97242.00;;;;8427909;28;20223;-69
2021/12/12 09:55:10;;;;;;;14.93;7.23;;;;;4.90;97232.00;;;;8428607;28;20215;-70
2021/12/12 09:59:50;;;;;;;13.67;6.63;;;;;4.90;97229.00;;;;8427830;28;20276;-72
2021/12/12 10:04:10;;;;;;;18.07;7.47;;;;;4.90;97225.00;;;;8427818;28;20243;-72
2021/12/12 10:08:25;;;;;;;18.13;8.50;;;;;5.10;97219.00;;;;8427790;28;20239;-70
2021/12/12 10:12:55;;;;;;;14.27;7.33;;;;;5.20;97219.00;;;;8427169;28;20222;-73
2021/12/12 10:17:26;;;;;;;18.30;8.40;;;;;5.20;97200.00;;;;8427194;28;20230;-73
2021/12/12 10:22:12;;;;;;;20.77;7.63;;;;;5.20;97212.00;;;;8427511;28;20218;-72
2021/12/12 10:26:43;;;;;;;19.40;8.97;;;;;5.40;97209.00;;;;8426948;28;20592;-72
2021/12/12 10:30:54;;;;;;;22.17;9.07;;;;;5.40;97185.00;;;;8427812;28;20330;-72
2021/12/12 10:35:25;;;;;;;23.17;8.80;;;;;5.10;97187.00;;;;8426696;28;20276;-72
2021/12/12 10:40:01;;;;;;;19.80;9.03;;;;;5.10;97184.00;;;;8426220;28;20222;-73
2021/12/12 10:44:40;;;;;;;24.57;8.97;;;;;4.90;97194.00;;;;8427159;28;20223;-73
2021/12/12 10:49:12;;;;;;;23.07;10.50;;;;;4.90;97182.00;;;;8426054;28;20536;-72
2021/12/12 10:53:50;;;;;;;22.43;9.43;;;;;4.90;97196.00;;;;8427237;28;20215;-72
2021/12/12 10:58:27;;;;;;;17.67;9.37;;;;;4.90;97185.00;;;;8426052;28;20280;-72
2021/12/12 11:02:37;;;;;;;20.73;9.30;;;;;5.00;97179.00;;;;8426341;28;20223;-72
2021/12/12 11:06:44;;;;;;;23.07;9.17;;;;;5.10;97184.00;;;;8426083;28;20229;-73
2021/12/12 11:11:18;;;;;;;19.37;9.40;;;;;5.20;97187.00;;;;8426212;28;20502;-71
2021/12/12 11:15:58;;;;;;;18.63;8.40;;;;;5.00;97188.00;;;;8426392;28;20237;-71
2021/12/12 11:20:35;;;;;;;22.40;9.73;;;;;4.80;97189.00;;;;8426217;28;20215;-71
2021/12/12 11:25:11;;;;;;;45.03;19.93;;;;;4.80;97190.00;;;;8425783;28;20658;-73
2021/12/12 11:29:47;;;;;;;76.20;30.03;;;;;5.00;97192.00;;;;8422111;28;20556;-74
2021/12/12 11:34:22;;;;;;;19.40;9.50;;;;;5.10;97191.00;;;;8423933;28;20255;-71
2021/12/12 11:38:55;;;;;;;227.63;99.40;;;;;5.10;97190.00;;;;8425388;28;20246;-73
2021/12/12 11:43:36;;;;;;;27.23;11.10;;;;;5.10;97197.00;;;;8426275;28;20563;-71
2021/12/12 11:48:15;;;;;;;109.90;39.40;;;;;5.00;97182.00;;;;8427985;28;20222;-71
2021/12/12 11:52:54;;;;;;;43.23;19.07;;;;;5.00;97176.00;;;;8431157;28;20227;-71
2021/12/12 11:57:25;;;;;;;39.47;17.70;;;;;5.00;97177.00;;;;8429069;28;20214;-70
2021/12/12 12:02:04;;;;;;;15.93;8.27;;;;;5.10;97177.00;;;;8431654;28;20230;-71
2021/12/12 12:06:40;;;;;;;14.93;8.40;;;;;5.30;97173.00;;;;8430580;28;20218;-71
2021/12/12 12:11:20;;;;;;;11.60;6.90;;;;;5.50;97164.00;;;;8431738;28;20234;-75
2021/12/12 12:15:53;;;;;;;13.87;7.70;;;;;5.60;97169.00;;;;8431647;28;20219;-77
2021/12/12 12:20:29;;;;;;;14.40;6.93;;;;;5.80;97174.00;;;;8430499;28;20275;-77
2021/12/12 12:25:13;;;;;;;12.50;6.33;;;;;5.80;97173.00;;;;8431954;28;20247;-74
2021/12/12 12:29:52;;;;;;;11.30;6.03;;;;;5.70;97164.00;;;;8431012;28;20230;-75
2021/12/12 12:34:45;;;;;;;12.10;7.43;;;;;5.70;97168.00;;;;8430632;28;20215;-75
2021/12/12 12:39:25;;;;;;;12.50;6.33;;;;;5.70;97172.00;;;;8430560;28;20572;-73
2021/12/12 12:44:05;;;;;;;13.63;6.93;;;;;5.60;97157.00;;;;8431771;28;20661;-77
2021/12/12 12:49:14;;;;;;;17.43;8.00;;;;;5.80;97154.00;;;;8429139;28;20302;-77
2021/12/12 12:53:54;;;;;;;34.37;14.13;;;;;5.80;97149.00;;;;8430640;28;20685;-76
2021/12/12 12:58:37;;;;;;;15.33;8.23;;;;;5.80;97158.00;;;;8430706;28;20223;-77
2021/12/12 13:03:17;;;;;;;16.50;7.37;;;;;6.00;97158.00;;;;8429228;28;20244;-76
2021/12/12 13:07:29;;;;;;;15.90;7.27;;;;;6.10;97154.00;;;;8430078;28;20665;-77
2021/12/12 13:12:20;;;;;;;21.70;10.13;;;;;5.90;97143.00;;;;8429910;28;20222;-77
2021/12/12 13:16:31;;;;;;;18.43;7.87;;;;;5.80;97149.00;;;;8429654;28;20675;-77
2021/12/12 13:20:56;;;;;;;23.53;11.10;;;;;5.80;97146.00;;;;8429193;28;20563;-76
2021/12/12 13:25:10;;;;;;;19.83;8.70;;;;;5.80;97147.00;;;;8429793;28;20217;-77
2021/12/12 13:29:44;;;;;;;19.63;8.17;;;;;5.90;97149.00;;;;8429193;28;20226;-76
2021/12/12 13:34:01;;;;;;;16.90;7.83;;;;;5.90;97143.00;;;;8428870;28;20234;-77
2021/12/12 13:38:30;;;;;;;18.93;8.87;;;;;5.90;97142.00;;;;8426319;28;20246;-77
2021/12/12 13:43:06;;;;;;;17.60;9.87;;;;;5.70;97138.00;;;;8428489;28;20218;-76
2021/12/12 13:47:18;;;;;;;19.10;9.40;;;;;5.70;97147.00;;;;8428908;28;20227;-75
2021/12/12 13:51:47;;;;;;;18.27;9.13;;;;;5.70;97138.00;;;;8428838;28;20215;-76
2021/12/12 13:56:23;;;;;;;20.63;10.20;;;;;5.70;97139.00;;;;8428528;28;20249;-74
2021/12/12 14:00:57;;;;;;;20.27;10.50;;;;;5.60;97133.00;;;;8428907;28;20322;-74
2021/12/12 14:05:05;;;;;;;25.97;12.60;;;;;5.70;97146.00;;;;8428610;28;20235;-73
2021/12/12 14:09:38;;;;;;;27.93;13.80;;;;;5.60;97152.00;;;;8426960;28;20219;-74
2021/12/12 14:14:17;;;;;;;19.33;9.73;;;;;5.60;97157.00;;;;8427851;28;20223;-76
2021/12/12 14:18:22;;;;;;;16.03;8.97;;;;;5.50;97149.00;;;;8426323;28;20318;-75
2021/12/12 14:22:57;;;;;;;23.37;11.60;;;;;5.30;97150.00;;;;8428353;28;20226;-76
2021/12/12 14:27:33;;;;;;;21.00;10.67;;;;;5.20;97151.00;;;;8427567;28;20238;-77
2021/12/12 14:32:08;;;;;;;18.23;8.87;;;;;5.20;97162.00;;;;8427969;28;20543;-76
2021/12/12 14:36:16;;;;;;;18.63;8.53;;;;;5.10;97160.00;;;;8426284;28;20219;-77
2021/12/12 14:40:48;;;;;;;23.60;9.73;;;;;5.00;97168.00;;;;8428219;28;20221;-77
2021/12/12 14:45:22;;;;;;;27.80;12.33;;;;;4.90;97175.00;;;;8425974;28;20335;-73
2021/12/12 14:50:07;;;;;;;16.63;8.43;;;;;4.80;97170.00;;;;8426327;28;20219;-73
2021/12/12 14:54:14;;;;;;;23.80;8.90;;;;;4.80;97172.00;;;;8427473;28;20646;-74
2021/12/12 14:58:57;;;;;;;17.03;8.80;;;;;4.80;97183.00;;;;8427205;28;20253;-74
2021/12/12 15:03:26;;;;;;;19.33;9.43;;;;;4.70;97186.00;;;;8426484;28;20648;-72
2021/12/12 15:07:35;;;;;;;16.40;7.83;;;;;4.70;97192.00;;;;8427119;28;20230;-72
2021/12/12 15:12:06;;;;;;;20.20;9.60;;;;;4.70;97183.00;;;;8427268;28;20326;-71
2021/12/12 15:16:14;;;;;;;17.57;8.47;;;;;4.70;97175.00;;;;8427618;28;20226;-71
2021/12/12 15:20:52;;;;;;;16.60;8.47;;;;;4.70;97176.00;;;;8426697;28;20276;-71
2021/12/12 15:24:59;;;;;;;15.90;8.87;;;;;4.70;97187.00;;;;8433447;28;20215;-71
2021/12/12 15:29:33;;;;;;;18.67;8.47;;;;;4.70;97186.00;;;;8415817;28;20219;-72
2021/12/12 15:33:39;;;;;;;15.90;9.43;;;;;4.80;97191.00;;;;8432711;28;20226;-72
2021/12/12 15:38:18;;;;;;;17.37;8.57;;;;;4.70;97185.00;;;;8433014;28;20343;-71
2021/12/12 15:42:26;;;;;;;21.30;9.33;;;;;4.70;97189.00;;;;8433170;28;20218;-72
2021/12/12 15:46:59;;;;;;;18.67;8.90;;;;;4.60;97197.00;;;;8433056;28;20572;-72
2021/12/12 15:51:34;;;;;;;16.60;8.40;;;;;4.60;97184.00;;;;8431653;28;20241;-72
2021/12/12 15:55:43;;;;;;;19.43;8.90;;;;;4.60;97183.00;;;;8431876;28;20559;-72
2021/12/12 16:00:19;;;;;;;16.27;9.13;;;;;4.70;97181.00;;;;8433854;28;20598;-72
2021/12/12 16:04:26;;;;;;;18.87;8.93;;;;;4.70;97180.00;;;;8431470;28;20242;-72
2021/12/12 16:08:37;;;;;;;16.87;8.90;;;;;4.70;97179.00;;;;8432625;28;20631;-73
2021/12/12 16:12:43;;;;;;;16.37;8.67;;;;;4.70;97191.00;;;;8432288;28;20223;-72
2021/12/12 16:17:23;;;;;;;16.57;8.77;;;;;4.70;97183.00;;;;8432593;28;20222;-72
2021/12/12 16:21:27;;;;;;;18.87;9.27;;;;;4.70;97179.00;;;;8432153;28;20230;-72
2021/12/12 16:25:36;;;;;;;18.13;8.60;;;;;4.60;97188.00;;;;8432066;28;20591;-73
2021/12/12 16:30:09;;;;;;;19.03;8.90;;;;;4.60;97200.00;;;;8432235;28;20669;-73
2021/12/12 16:34:19;;;;;;;14.70;8.60;;;;;4.60;97197.00;;;;8431589;28;20218;-73
2021/12/12 16:38:27;;;;;;;19.27;10.20;;;;;4.60;97193.00;;;;8431576;28;20215;-73
2021/12/12 16:42:59;;;;;;;17.27;9.63;;;;;4.50;97184.00;;;;8431666;28;20661;-73
2021/12/12 16:47:06;;;;;;;16.77;8.63;;;;;4.50;97183.00;;;;8431619;28;20555;-73
2021/12/12 16:51:37;;;;;;;18.67;9.13;;;;;4.40;97183.00;;;;8432031;28;20727;-73
2021/12/12 16:55:44;;;;;;;17.57;9.23;;;;;4.40;97191.00;;;;8431005;28;20231;-73
2021/12/12 16:59:48;;;;;;;16.90;9.10;;;;;4.50;97179.00;;;;8431118;28;20223;-73
2021/12/12 17:03:55;;;;;;;19.87;9.67;;;;;4.50;97173.00;;;;8430719;28;20364;-73
2021/12/12 17:08:14;;;;;;;18.97;10.10;;;;;4.50;97183.00;;;;8430504;28;20223;-73
2021/12/12 17:12:41;;;;;;;17.77;9.90;;;;;4.50;97176.00;;;;8430307;28;20218;-73
2021/12/12 17:16:47;;;;;;;18.63;9.23;;;;;4.50;97175.00;;;;8430058;28;20239;-73
2021/12/12 17:21:21;;;;;;;20.73;9.00;;;;;4.50;97176.00;;;;8430774;28;20662;-72
2021/12/12 17:25:25;;;;;;;23.53;11.37;;;;;4.50;97172.00;;;;8429723;28;20246;-72
2021/12/12 17:29:31;;;;;;;21.50;10.50;;;;;4.40;97162.00;;;;8430141;28;20229;-72
2021/12/12 17:34:10;;;;;;;23.03;10.50;;;;;4.40;97165.00;;;;8430189;28;20261;-72
2021/12/12 17:38:17;;;;;;;19.17;10.10;;;;;4.40;97157.00;;;;8428261;28;20226;-72
2021/12/12 17:42:58;;;;;;;24.77;10.43;;;;;4.40;97155.00;;;;8427390;28;20639;-71
2021/12/12 17:47:52;;;;;;;23.23;10.00;;;;;4.50;97159.00;;;;8428837;28;20707;-73
2021/12/12 17:52:54;;;;;;;22.33;9.30;;;;;4.50;97158.00;;;;8428869;28;20600;-73
2021/12/12 17:57:05;;;;;;;20.67;10.30;;;;;4.50;97155.00;;;;8249006;28;20225;-72
2021/12/12 18:01:15;;;;;;;24.50;10.03;;;;;4.50;97149.00;;;;8403659;28;20250;-73
2021/12/12 18:05:44;;;;;;;24.77;9.17;;;;;4.50;97157.00;;;;8425199;28;20221;-73
2021/12/12 18:10:18;;;;;;;25.07;10.17;;;;;4.50;97148.00;;;;8429398;28;20219;-73
2021/12/12 18:14:55;;;;;;;21.87;9.77;;;;;4.60;97147.00;;;;8428323;28;20231;-74
2021/12/12 18:19:36;;;;;;;21.87;9.30;;;;;4.50;97143.00;;;;8428190;28;20223;-72
2021/12/12 18:23:44;;;;;;;32.77;14.67;;;;;4.30;97147.00;;;;8426743;28;20247;-72
2021/12/12 18:27:57;;;;;;;39.07;17.47;;;;;4.20;97133.00;;;;8428638;28;20548;-74
2021/12/12 18:32:02;;;;;;;44.13;20.53;;;;;4.20;97131.00;;;;8426986;28;20222;-74
2021/12/12 18:36:36;;;;;;;149.03;72.50;;;;;4.20;97139.00;;;;8428577;28;20571;-75
2021/12/12 18:40:56;;;;;;;42.23;19.37;;;;;4.20;97148.00;;;;8427761;28;20249;-76
2021/12/12 18:45:03;;;;;;;337.57;209.93;;;;;4.20;97148.00;;;;8428205;28;20257;-76
2021/12/12 18:49:10;;;;;;;337.90;237.80;;;;;4.20;97153.00;;;;8427855;28;20221;-77
2021/12/12 18:53:46;;;;;;;366.30;211.00;;;;;4.20;97159.00;;;;8422513;28;20586;-76
2021/12/12 18:58:27;;;;;;;160.30;87.80;;;;;4.20;97154.00;;;;8435613;28;20223;-79
2021/12/12 19:02:33;;;;;;;198.93;113.60;;;;;4.30;97162.00;;;;8435181;28;20245;-77
2021/12/12 19:06:40;;;;;;;176.57;118.43;;;;;4.40;97172.00;;;;8438791;28;20232;-78
2021/12/12 19:11:15;;;;;;;45.60;21.03;;;;;4.40;97168.00;;;;8437950;28;20221;-79
2021/12/12 19:15:24;;;;;;;79.93;56.83;;;;;4.40;97163.00;;;;8437476;28;20659;-77
2021/12/12 19:19:57;;;;;;;114.67;95.67;;;;;4.30;97160.00;;;;8438318;28;20670;-79
2021/12/12 19:24:35;;;;;;;40.63;21.00;;;;;4.30;97164.00;;;;8437919;28;20276;-84
2021/12/12 19:29:10;;;;;;;48.03;24.27;;;;;4.30;97161.00;;;;8437795;28;20620;-78
2021/12/12 19:33:53;;;;;;;92.87;65.30;;;;;4.30;97165.00;;;;8438031;28;20517;-76
2021/12/12 19:38:22;;;;;;;74.63;49.30;;;;;4.30;97166.00;;;;8437550;28;20210;-75
2021/12/12 19:42:57;;;;;;;32.83;17.47;;;;;4.40;97167.00;;;;8437931;28;20249;-76
2021/12/12 19:47:06;;;;;;;36.53;13.13;;;;;4.30;97162.00;;;;8437809;28;20261;-77
2021/12/12 19:51:13;;;;;;;30.90;11.20;;;;;4.40;97162.00;;;;8438094;28;20306;-76
2021/12/12 19:55:48;;;;;;;31.67;11.90;;;;;4.40;97166.00;;;;8437263;28;20669;-77
2021/12/12 19:59:52;;;;;;;33.57;12.17;;;;;4.40;97174.00;;;;8436952;28;20244;-77
2021/12/12 20:03:57;;;;;;;31.53;11.77;;;;;4.40;97170.00;;;;8437627;28;20230;-76
2021/12/12 20:08:10;;;;;;;36.03;12.03;;;;;4.40;97178.00;;;;8434307;28;20686;-77
2021/12/12 20:12:35;;;;;;;31.37;11.80;;;;;4.40;97182.00;;;;8431601;28;20559;-76
2021/12/12 20:16:42;;;;;;;33.40;11.63;;;;;4.40;97176.00;;;;8431914;28;20233;-76
2021/12/12 20:21:16;;;;;;;36.83;12.43;;;;;4.30;97177.00;;;;8431758;28;20228;-77
2021/12/12 20:25:56;;;;;;;41.30;15.27;;;;;4.40;97175.00;;;;8431699;28;20211;-76
2021/12/12 20:30:32;;;;;;;31.77;11.93;;;;;4.30;97178.00;;;;8431516;28;20254;-77
2021/12/12 20:35:06;;;;;;;32.73;12.83;;;;;4.30;97174.00;;;;8430954;28;20232;-75
2021/12/12 20:39:44;;;;;;;39.50;12.67;;;;;4.30;97173.00;;;;8430313;28;20217;-76
2021/12/12 20:44:21;;;;;;;32.77;12.03;;;;;4.30;97177.00;;;;8431395;28;20248;-76
2021/12/12 20:48:56;;;;;;;44.70;12.47;;;;;4.40;97174.00;;;;8430318;28;20215;-76
2021/12/12 20:53:31;;;;;;;42.83;12.63;;;;;4.30;97170.00;;;;8429948;28;20234;-76
2021/12/12 20:58:05;;;;;;;51.53;13.07;;;;;4.30;97165.00;;;;8429751;28;20234;-76
2021/12/12 21:02:12;;;;;;;58.20;14.63;;;;;4.30;97169.00;;;;8431036;28;20226;-76
2021/12/12 21:06:19;;;;;;;56.30;14.60;;;;;4.20;97155.00;;;;8429617;28;20220;-76
2021/12/12 21:10:24;;;;;;;41.63;12.47;;;;;4.10;97152.00;;;;8430471;28;20233;-77
2021/12/12 21:14:30;;;;;;;50.90;13.87;;;;;4.10;97151.00;;;;8430274;28;20225;-76
2021/12/12 21:19:08;;;;;;;36.30;13.10;;;;;4.00;97152.00;;;;8429012;28;20230;-76
2021/12/12 21:23:44;;;;;;;28.77;11.80;;;;;4.00;97153.00;;;;8429173;28;20222;-76
2021/12/12 21:28:16;;;;;;;36.27;12.97;;;;;4.00;97167.00;;;;8429700;28;20628;-76
2021/12/12 21:32:50;;;;;;;38.27;12.20;;;;;4.10;97165.00;;;;8428741;28;20595;-82
2021/12/12 21:36:57;;;;;;;44.50;13.33;;;;;4.30;97167.00;;;;8429242;28;20233;-76
2021/12/12 21:41:02;;;;;;;36.67;12.23;;;;;4.30;97165.00;;;;8429658;28;20225;-76
2021/12/12 21:45:38;;;;;;;39.77;11.90;;;;;4.40;97167.00;;;;8428942;28;20227;-76
2021/12/12 21:49:49;;;;;;;51.07;13.23;;;;;4.40;97157.00;;;;8428790;28;20226;-75
2021/12/12 21:54:19;;;;;;;46.60;12.43;;;;;4.30;97162.00;;;;8428799;28;20229;-75
2021/12/12 21:58:54;;;;;;;34.40;12.43;;;;;4.20;97149.00;;;;8428315;28;20226;-76
2021/12/12 22:02:58;;;;;;;41.77;12.47;;;;;4.20;97154.00;;;;8428034;28;20625;-77
2021/12/12 22:07:05;;;;;;;63.50;12.93;;;;;4.20;97153.00;;;;8428619;28;20237;-79
2021/12/12 22:11:10;;;;;;;56.70;13.03;;;;;4.10;97150.00;;;;8427618;28;20590;-79
2021/12/12 22:15:15;;;;;;;93.87;14.40;;;;;4.20;97147.00;;;;8420092;28;20222;-79